Time;durP1;ratioP1;P1;durP2;ratioP2;P2;SDS_P1;SDS_P2;PMS_P1;PMS_P2;Temp;Humidity;BMP_temperature;BMP_pressure;BME280_temperature;BME280_humidity;BME280_pressure;Samples;Min_cycle;Max_cycle;Signal;HPM_P1;HPM_P2
2023/01/12 00:02:14;;;;;;;4.63;0.60;;;;;;;;;;5281460;28;20024;-73
2023/01/12 00:04:45;;;;;;;6.78;0.52;;;;;;;;;;5281433;28;20028;-74
2023/01/12 00:07:17;;;;;;;7.70;0.57;;;;;;;;;;5282041;28;20387;-74
2023/01/12 00:09:48;;;;;;;5.57;0.88;;;;;;;;;;5280573;28;20025;-73
2023/01/12 00:12:20;;;;;;;8.98;1.00;;;;;;;;;;5282125;28;20032;-74
2023/01/12 00:14:52;;;;;;;4.95;0.50;;;;;;;;;;5280529;28;20021;-73
2023/01/12 00:17:23;;;;;;;5.78;0.80;;;;;;;;;;5281544;28;20036;-73
2023/01/12 00:19:54;;;;;;;6.63;0.65;;;;;;;;;;5281599;28;20028;-73
2023/01/12 00:22:25;;;;;;;4.53;0.50;;;;;;;;;;5280644;28;20047;-74
2023/01/12 00:24:56;;;;;;;6.93;0.80;;;;;;;;;;5281668;28;20017;-73
2023/01/12 00:27:27;;;;;;;6.25;0.60;;;;;;;;;;5281502;28;20031;-73
2023/01/12 00:29:59;;;;;;;5.35;0.70;;;;;;;;;;5280682;28;20024;-74
2023/01/12 00:32:30;;;;;;;7.28;0.80;;;;;;;;;;5281351;28;20048;-74
2023/01/12 00:35:01;;;;;;;7.10;0.70;;;;;;;;;;5281559;28;20049;-74
2023/01/12 00:37:33;;;;;;;9.77;0.77;;;;;;;;;;5280941;28;20033;-75
2023/01/12 00:40:04;;;;;;;8.52;1.30;;;;;;;;;;5285588;28;20127;-74
2023/01/12 00:45:25;;;;;;;8.02;0.93;;;;;;;;;;5285749;28;20036;-74
2023/01/12 00:47:56;;;;;;;9.48;1.25;;;;;;;;;;5285558;28;20013;-75
2023/01/12 00:50:28;;;;;;;9.02;1.10;;;;;;;;;;5284762;28;20075;-75
2023/01/12 00:52:59;;;;;;;9.77;0.80;;;;;;;;;;5285271;28;20052;-74
2023/01/12 00:55:30;;;;;;;8.02;0.80;;;;;;;;;;5285115;28;20021;-74
2023/01/12 00:58:01;;;;;;;7.55;1.20;;;;;;;;;;5284453;28;20060;-74
2023/01/12 01:00:33;;;;;;;7.35;0.80;;;;;;;;;;5285021;28;20488;-73
2023/01/12 01:03:04;;;;;;;7.05;1.02;;;;;;;;;;5285030;28;20468;-73
2023/01/12 01:05:35;;;;;;;5.43;0.68;;;;;;;;;;5284145;28;20024;-74
2023/01/12 01:08:06;;;;;;;8.38;1.15;;;;;;;;;;5284813;28;20533;-74
2023/01/12 01:10:38;;;;;;;13.10;2.50;;;;;;;;;;5284781;28;20024;-74
2023/01/12 01:13:09;;;;;;;8.55;0.80;;;;;;;;;;5284634;28;20484;-74
2023/01/12 01:15:40;;;;;;;11.23;1.02;;;;;;;;;;5284575;28;20020;-74
2023/01/12 01:18:11;;;;;;;8.48;1.00;;;;;;;;;;5284250;28;20115;-74
2023/01/12 01:20:45;;;;;;;11.15;1.42;;;;;;;;;;5284798;28;20480;-74
2023/01/12 01:23:16;;;;;;;10.40;1.27;;;;;;;;;;5285162;28;20434;-75
2023/01/12 01:25:47;;;;;;;9.38;1.15;;;;;;;;;;5283892;28;20020;-74
2023/01/12 01:28:19;;;;;;;12.57;1.67;;;;;;;;;;5284881;28;20032;-75
2023/01/12 01:30:50;;;;;;;12.60;2.30;;;;;;;;;;5284157;28;20500;-74
2023/01/12 01:33:21;;;;;;;15.25;2.20;;;;;;;;;;5283946;28;20059;-75
2023/01/12 01:35:52;;;;;;;12.38;1.30;;;;;;;;;;5284533;28;20040;-76
2023/01/12 01:38:23;;;;;;;12.10;1.50;;;;;;;;;;5284404;28;20032;-74
2023/01/12 01:40:55;;;;;;;11.27;1.35;;;;;;;;;;5282271;28;20028;-74
2023/01/12 01:43:27;;;;;;;12.80;1.20;;;;;;;;;;5284235;28;20059;-75
2023/01/12 01:46:09;;;;;;;12.88;2.05;;;;;;;;;;5283655;28;20494;-76
2023/01/12 01:48:41;;;;;;;10.82;1.08;;;;;;;;;;5283652;28;20086;-76
2023/01/12 01:51:13;;;;;;;12.70;1.05;;;;;;;;;;5284624;28;20056;-75
2023/01/12 01:53:45;;;;;;;9.48;1.15;;;;;;;;;;5282711;28;20044;-73
2023/01/12 01:56:19;;;;;;;9.02;1.33;;;;;;;;;;5284322;28;20424;-73
2023/01/12 01:58:58;;;;;;;12.55;1.52;;;;;;;;;;5283742;28;20467;-76
2023/01/12 02:01:29;;;;;;;9.73;0.80;;;;;;;;;;5283153;28;20020;-76
2023/01/12 02:04:01;;;;;;;13.70;2.47;;;;;;;;;;5283984;28;20422;-74
2023/01/12 02:06:32;;;;;;;11.75;1.92;;;;;;;;;;5283755;28;20038;-74
2023/01/12 02:09:13;;;;;;;11.93;1.50;;;;;;;;;;5283329;28;20016;-73
2023/01/12 02:17:37;;;;;;;13.40;0.88;;;;;;;;;;5283794;28;20037;-74
2023/01/12 02:20:27;;;;;;;15.88;1.52;;;;;;;;;;5283716;28;20040;-74
2023/01/12 02:23:07;;;;;;;14.80;1.98;;;;;;;;;;5282586;28;20025;-73
2023/01/12 02:25:57;;;;;;;14.13;2.05;;;;;;;;;;5283378;28;20025;-75
2023/01/12 02:28:34;;;;;;;14.23;1.30;;;;;;;;;;5282551;28;20028;-74
2023/01/12 02:31:24;;;;;;;14.70;2.50;;;;;;;;;;5283356;28;20032;-74
2023/01/12 02:34:04;;;;;;;11.15;1.17;;;;;;;;;;5283558;28;20513;-74
2023/01/12 02:36:36;;;;;;;12.05;1.20;;;;;;;;;;5282724;28;20422;-73
2023/01/12 02:39:07;;;;;;;8.90;1.25;;;;;;;;;;5283181;28;20032;-73
2023/01/12 02:44:35;;;;;;;9.82;1.20;;;;;;;;;;5282561;28;20353;-73
2023/01/12 02:47:10;;;;;;;10.90;1.20;;;;;;;;;;5283112;28;20008;-74
2023/01/12 02:49:45;;;;;;;8.85;1.23;;;;;;;;;;5281755;28;20159;-73
2023/01/12 02:52:18;;;;;;;11.55;1.02;;;;;;;;;;5283130;28;20375;-73
2023/01/12 02:54:51;;;;;;;11.77;0.90;;;;;;;;;;5282411;28;20021;-73
2023/01/12 02:57:22;;;;;;;8.75;0.80;;;;;;;;;;5281863;28;20032;-74
2023/01/12 02:59:54;;;;;;;9.95;2.15;;;;;;;;;;5282510;28;20463;-74
2023/01/12 03:02:26;;;;;;;11.30;0.80;;;;;;;;;;5282272;28;20405;-74
2023/01/12 03:04:57;;;;;;;8.60;0.95;;;;;;;;;;5281653;28;20051;-74
2023/01/12 03:07:36;;;;;;;11.15;0.60;;;;;;;;;;5282776;28;20484;-75
2023/01/12 03:10:14;;;;;;;11.18;1.00;;;;;;;;;;5282739;28;20480;-75
2023/01/12 03:12:46;;;;;;;10.95;1.20;;;;;;;;;;5281476;28;20476;-75
2023/01/12 03:15:19;;;;;;;8.85;0.98;;;;;;;;;;5282787;28;20032;-75
2023/01/12 03:17:57;;;;;;;8.95;0.85;;;;;;;;;;5281453;28;20066;-75
2023/01/12 03:20:31;;;;;;;16.00;1.77;;;;;;;;;;5282296;28;20044;-76
2023/01/12 03:23:10;;;;;;;9.25;0.73;;;;;;;;;;5282256;28;20082;-75
2023/01/12 03:25:43;;;;;;;10.48;0.80;;;;;;;;;;5281029;28;20396;-75
2023/01/12 03:28:15;;;;;;;9.60;1.20;;;;;;;;;;5282428;28;20036;-75
2023/01/12 03:30:55;;;;;;;10.57;0.82;;;;;;;;;;5281989;28;20532;-75
2023/01/12 03:33:26;;;;;;;7.55;0.88;;;;;;;;;;5279411;28;20494;-75
2023/01/12 03:36:16;;;;;;;8.00;0.73;;;;;;;;;;5281949;28;20037;-75
2023/01/12 03:38:56;;;;;;;8.95;0.80;;;;;;;;;;5280941;28;20047;-76
2023/01/12 03:41:32;;;;;;;11.02;1.35;;;;;;;;;;5282029;28;20022;-75
2023/01/12 03:44:04;;;;;;;9.75;0.77;;;;;;;;;;5282024;28;20074;-74
2023/01/12 03:46:39;;;;;;;8.38;0.73;;;;;;;;;;5280762;28;20468;-75
2023/01/12 03:49:20;;;;;;;7.18;0.70;;;;;;;;;;5282210;28;20062;-74
2023/01/12 03:51:52;;;;;;;9.43;1.17;;;;;;;;;;5281652;28;20016;-74
2023/01/12 03:54:24;;;;;;;11.07;1.30;;;;;;;;;;5280650;28;20059;-74
2023/01/12 03:56:55;;;;;;;11.63;0.70;;;;;;;;;;5281311;28;20021;-74
2023/01/12 03:59:27;;;;;;;7.70;0.50;;;;;;;;;;5281782;28;20028;-74
2023/01/12 04:01:58;;;;;;;7.80;0.80;;;;;;;;;;5280833;28;20047;-74
2023/01/12 04:04:29;;;;;;;7.74;1.00;;;;;;;;;;5281529;28;20025;-74
2023/01/12 04:07:00;;;;;;;7.25;0.70;;;;;;;;;;5280761;28;20104;-75
2023/01/12 04:09:31;;;;;;;8.30;1.45;;;;;;;;;;5281500;28;20537;-74
2023/01/12 04:12:12;;;;;;;6.80;0.93;;;;;;;;;;5281695;28;20020;-74
2023/01/12 04:14:44;;;;;;;10.38;1.30;;;;;;;;;;5280712;28;20495;-74
2023/01/12 04:17:15;;;;;;;8.00;0.73;;;;;;;;;;5281705;28;20036;-75
2023/01/12 04:19:47;;;;;;;8.70;0.73;;;;;;;;;;5281104;28;20033;-73
2023/01/12 04:25:11;;;;;;;9.05;1.23;;;;;;;;;;5281766;28;20375;-73
2023/01/12 04:27:55;;;;;;;9.77;0.85;;;;;;;;;;5280549;28;20020;-75
2023/01/12 04:30:28;;;;;;;5.78;0.75;;;;;;;;;;5281408;28;20021;-74
2023/01/12 04:32:59;;;;;;;7.55;0.73;;;;;;;;;;5281335;28;20038;-74
2023/01/12 04:35:30;;;;;;;10.90;1.13;;;;;;;;;;5280635;28;20415;-72
2023/01/12 04:38:05;;;;;;;7.30;0.73;;;;;;;;;;5281366;28;20040;-74
2023/01/12 04:40:36;;;;;;;9.05;1.20;;;;;;;;;;5281232;28;20426;-74
2023/01/12 04:43:08;;;;;;;7.90;1.02;;;;;;;;;;5280627;28;20028;-73
2023/01/12 04:45:42;;;;;;;9.43;0.98;;;;;;;;;;5280904;28;20493;-74
2023/01/12 04:48:14;;;;;;;9.45;0.90;;;;;;;;;;5281546;28;20111;-73
2023/01/12 04:50:45;;;;;;;6.63;0.65;;;;;;;;;;5280067;28;20087;-73
2023/01/12 04:53:16;;;;;;;3.72;0.50;;;;;;;;;;5281244;28;20049;-73
2023/01/12 04:55:48;;;;;;;6.53;1.00;;;;;;;;;;5280953;28;20025;-75
2023/01/12 04:58:19;;;;;;;10.00;0.80;;;;;;;;;;5280703;28;20060;-75
2023/01/12 05:00:50;;;;;;;6.10;0.90;;;;;;;;;;5280828;28;20056;-74
2023/01/12 05:03:22;;;;;;;8.05;0.60;;;;;;;;;;5280214;28;20032;-74
2023/01/12 05:05:53;;;;;;;11.48;1.10;;;;;;;;;;5281250;28;20017;-73
2023/01/12 05:11:14;;;;;;;6.07;0.82;;;;;;;;;;5280771;28;20115;-73
2023/01/12 05:13:45;;;;;;;6.90;0.80;;;;;;;;;;5280830;28;20091;-74
2023/01/12 05:16:17;;;;;;;7.40;1.00;;;;;;;;;;5281050;28;20440;-73
2023/01/12 05:18:48;;;;;;;10.27;0.93;;;;;;;;;;5279654;28;20415;-74
2023/01/12 05:21:21;;;;;;;5.63;0.45;;;;;;;;;;5281367;28;20390;-74
2023/01/12 05:23:52;;;;;;;11.88;1.13;;;;;;;;;;5281574;28;20025;-74
2023/01/12 05:26:23;;;;;;;12.57;1.67;;;;;;;;;;5283784;28;20106;-74
2023/01/12 05:28:54;;;;;;;7.50;0.50;;;;;;;;;;5284777;28;20012;-75
2023/01/12 05:31:26;;;;;;;4.53;0.43;;;;;;;;;;5284001;28;20044;-72
2023/01/12 05:33:57;;;;;;;10.77;1.42;;;;;;;;;;5284433;28;20096;-73
2023/01/12 05:36:28;;;;;;;8.27;0.50;;;;;;;;;;5284470;28;20433;-73
2023/01/12 05:39:00;;;;;;;8.52;0.85;;;;;;;;;;5283525;28;20020;-75
2023/01/12 05:41:31;;;;;;;8.93;0.50;;;;;;;;;;5284585;28;20137;-73
2023/01/12 05:44:02;;;;;;;9.90;1.58;;;;;;;;;;5284405;28;20024;-73
2023/01/12 05:46:38;;;;;;;10.65;0.90;;;;;;;;;;5283613;28;20025;-73
2023/01/12 05:49:10;;;;;;;7.18;0.68;;;;;;;;;;5284443;28;20467;-73
2023/01/12 05:51:41;;;;;;;8.32;0.80;;;;;;;;;;5283856;28;20029;-73
2023/01/12 05:54:12;;;;;;;19.94;1.60;;;;;;;;;;5283514;28;20046;-73
2023/01/12 05:56:43;;;;;;;83.20;4.80;;;;;;;;;;5283693;28;20023;-73
2023/01/12 05:59:14;;;;;;;11.93;0.77;;;;;;;;;;5283488;28;20472;-73
2023/01/12 06:01:46;;;;;;;7.15;0.95;;;;;;;;;;5283702;28;20008;-73
2023/01/12 06:04:17;;;;;;;5.80;0.60;;;;;;;;;;5284459;28;20028;-73
2023/01/12 06:06:48;;;;;;;5.20;0.50;;;;;;;;;;5282632;28;20031;-74
2023/01/12 06:09:19;;;;;;;4.25;0.40;;;;;;;;;;5284098;28;20108;-73
2023/01/12 06:14:40;;;;;;;4.82;0.50;;;;;;;;;;5282905;28;20028;-73
2023/01/12 06:17:11;;;;;;;4.55;0.40;;;;;;;;;;5284239;28;20096;-73
2023/01/12 06:19:43;;;;;;;4.85;0.52;;;;;;;;;;5283398;28;20074;-73
2023/01/12 06:22:14;;;;;;;4.93;0.30;;;;;;;;;;5283121;28;20111;-74
2023/01/12 06:24:47;;;;;;;2.60;0.32;;;;;;;;;;5282988;28;20468;-74
2023/01/12 06:27:19;;;;;;;4.43;0.50;;;;;;;;;;5283303;28;20104;-74
2023/01/12 06:29:50;;;;;;;2.25;0.28;;;;;;;;;;5283235;28;20104;-73
2023/01/12 06:32:21;;;;;;;3.03;0.75;;;;;;;;;;5283483;28;20077;-73
2023/01/12 06:34:52;;;;;;;2.83;0.30;;;;;;;;;;5282321;28;20023;-74
2023/01/12 06:37:24;;;;;;;3.47;0.50;;;;;;;;;;5282413;28;20119;-73
2023/01/12 06:39:55;;;;;;;2.92;0.38;;;;;;;;;;5283480;28;20020;-74
2023/01/12 06:42:30;;;;;;;3.40;0.50;;;;;;;;;;5282219;28;20074;-73
2023/01/12 06:45:02;;;;;;;4.45;0.40;;;;;;;;;;5282998;28;20455;-74
2023/01/12 06:47:42;;;;;;;3.75;0.35;;;;;;;;;;5283025;28;20479;-73
2023/01/12 06:50:14;;;;;;;2.90;0.52;;;;;;;;;;5282961;28;20396;-74
2023/01/12 06:52:45;;;;;;;3.03;0.40;;;;;;;;;;5282457;28;20072;-73
2023/01/12 06:55:17;;;;;;;3.38;0.30;;;;;;;;;;5283133;28;20103;-72
2023/01/12 06:57:48;;;;;;;2.75;0.20;;;;;;;;;;5281646;28;20036;-73
2023/01/12 07:00:19;;;;;;;1.90;0.20;;;;;;;;;;5282821;28;20073;-73
2023/01/12 07:02:51;;;;;;;2.25;0.30;;;;;;;;;;5281866;28;20456;-73
2023/01/12 07:05:22;;;;;;;1.50;0.20;;;;;;;;;;5282937;28;20052;-73
2023/01/12 07:07:58;;;;;;;1.83;0.10;;;;;;;;;;5282530;28;20115;-73
2023/01/12 07:10:31;;;;;;;1.42;0.13;;;;;;;;;;5281691;28;20028;-72
2023/01/12 07:13:02;;;;;;;3.22;0.50;;;;;;;;;;5282760;28;20538;-73
2023/01/12 07:15:33;;;;;;;2.30;0.22;;;;;;;;;;5282706;28;20103;-73
2023/01/12 07:18:05;;;;;;;3.08;0.30;;;;;;;;;;5281596;28;20038;-73
2023/01/12 07:20:36;;;;;;;3.42;0.20;;;;;;;;;;5282474;28;20422;-74
2023/01/12 07:23:07;;;;;;;2.45;0.25;;;;;;;;;;5282323;28;20021;-73
2023/01/12 07:25:38;;;;;;;2.20;0.20;;;;;;;;;;5281197;28;20074;-72
2023/01/12 07:28:11;;;;;;;1.50;0.20;;;;;;;;;;5282214;28;20468;-73
2023/01/12 07:30:42;;;;;;;1.63;0.20;;;;;;;;;;5281000;28;20103;-73
2023/01/12 07:33:15;;;;;;;2.10;0.30;;;;;;;;;;5282430;28;20099;-72
2023/01/12 07:35:46;;;;;;;2.55;0.22;;;;;;;;;;5281393;28;20017;-73
2023/01/12 07:38:17;;;;;;;1.35;0.20;;;;;;;;;;5281405;28;20047;-74
2023/01/12 07:40:50;;;;;;;2.08;0.20;;;;;;;;;;5281722;28;20016;-73
2023/01/12 07:43:22;;;;;;;1.35;0.20;;;;;;;;;;5281955;28;20025;-72
2023/01/12 07:45:57;;;;;;;2.75;0.90;;;;;;;;;;5281223;28;20069;-72
2023/01/12 07:48:29;;;;;;;2.65;0.30;;;;;;;;;;5281743;28;20028;-73
2023/01/12 07:51:00;;;;;;;2.05;0.20;;;;;;;;;;5281947;28;20009;-73
2023/01/12 07:53:31;;;;;;;2.92;0.20;;;;;;;;;;5280653;28;20056;-74
2023/01/12 07:56:03;;;;;;;1.65;0.20;;;;;;;;;;5281738;28;20025;-72
2023/01/12 07:58:34;;;;;;;1.25;0.20;;;;;;;;;;5281412;28;20067;-71
2023/01/12 08:01:05;;;;;;;1.92;0.20;;;;;;;;;;5280452;28;20105;-72
2023/01/12 08:03:37;;;;;;;2.05;0.20;;;;;;;;;;5280941;28;20391;-72
2023/01/12 08:06:08;;;;;;;1.63;0.20;;;;;;;;;;5277931;28;20025;-72
2023/01/12 08:08:39;;;;;;;1.85;0.20;;;;;;;;;;5278874;28;20103;-73
2023/01/12 08:11:11;;;;;;;2.53;0.28;;;;;;;;;;5279553;28;20472;-72
2023/01/12 08:13:42;;;;;;;1.88;0.10;;;;;;;;;;5278351;28;20024;-74
2023/01/12 08:16:15;;;;;;;2.28;0.20;;;;;;;;;;5279828;28;20878;-72
2023/01/12 08:18:49;;;;;;;2.72;0.20;;;;;;;;;;5279404;28;20380;-73
2023/01/12 08:21:21;;;;;;;1.10;0.17;;;;;;;;;;5280757;28;20032;-71
2023/01/12 08:23:54;;;;;;;2.33;0.35;;;;;;;;;;5281436;28;20024;-73
2023/01/12 08:26:36;;;;;;;1.30;0.10;;;;;;;;;;5279222;28;20639;-72
2023/01/12 08:29:10;;;;;;;2.45;0.20;;;;;;;;;;5278761;28;20017;-73
2023/01/12 08:31:42;;;;;;;1.75;0.20;;;;;;;;;;5278852;28;20074;-73
2023/01/12 08:34:13;;;;;;;1.27;0.20;;;;;;;;;;5272639;28;20020;-73
2023/01/12 08:36:44;;;;;;;0.70;0.10;;;;;;;;;;5278597;28;20032;-73
2023/01/12 08:39:15;;;;;;;1.25;0.13;;;;;;;;;;5275181;28;20033;-73
2023/01/12 08:41:47;;;;;;;0.90;0.20;;;;;;;;;;5270935;28;20745;-74
2023/01/12 08:44:19;;;;;;;1.48;0.20;;;;;;;;;;5266201;28;20071;-74
2023/01/12 08:46:51;;;;;;;1.05;0.20;;;;;;;;;;5279407;28;20100;-72
2023/01/12 08:49:24;;;;;;;1.25;0.10;;;;;;;;;;5280524;28;20468;-72
2023/01/12 08:51:56;;;;;;;0.80;0.20;;;;;;;;;;5280740;28;20028;-73
2023/01/12 08:54:27;;;;;;;1.17;0.20;;;;;;;;;;5280597;28;20440;-72
2023/01/12 08:56:58;;;;;;;2.00;0.25;;;;;;;;;;5279771;28;20907;-75
2023/01/12 08:59:29;;;;;;;0.90;0.20;;;;;;;;;;5282689;28;20032;-73
2023/01/12 09:02:01;;;;;;;0.45;0.17;;;;;;;;;;5284400;28;20027;-74
2023/01/12 09:04:32;;;;;;;1.33;0.20;;;;;;;;;;5284697;28;20074;-73
2023/01/12 09:07:03;;;;;;;1.27;0.20;;;;;;;;;;5284686;28;20020;-74
2023/01/12 09:09:35;;;;;;;0.52;0.13;;;;;;;;;;5284114;28;20031;-73
2023/01/12 09:12:06;;;;;;;0.40;0.10;;;;;;;;;;5284784;28;20020;-73
2023/01/12 09:14:37;;;;;;;1.65;0.40;;;;;;;;;;5284698;28;20036;-73
2023/01/12 09:17:08;;;;;;;1.38;0.20;;;;;;;;;;5283835;28;20021;-73
2023/01/12 09:19:42;;;;;;;1.40;0.13;;;;;;;;;;5284101;28;20024;-74
2023/01/12 09:22:14;;;;;;;2.35;0.20;;;;;;;;;;5285046;28;20462;-74
2023/01/12 09:24:45;;;;;;;0.93;0.10;;;;;;;;;;5283320;28;20032;-73
2023/01/12 09:27:16;;;;;;;1.08;0.20;;;;;;;;;;5284727;28;20092;-73
2023/01/12 09:29:47;;;;;;;0.60;0.10;;;;;;;;;;5283939;28;20074;-73
2023/01/12 09:32:19;;;;;;;1.30;0.10;;;;;;;;;;5283621;28;20047;-73
2023/01/12 09:34:50;;;;;;;1.10;0.20;;;;;;;;;;5283577;28;20028;-73
2023/01/12 09:37:21;;;;;;;1.13;0.10;;;;;;;;;;5283215;28;20375;-73
2023/01/12 09:39:53;;;;;;;1.05;0.10;;;;;;;;;;5284156;28;20028;-74
2023/01/12 09:48:10;;;;;;;0.35;0.10;;;;;;;;;;5283746;28;20032;-74
2023/01/12 09:50:52;;;;;;;0.40;0.10;;;;;;;;;;5283964;28;20472;-74
2023/01/12 09:53:30;;;;;;;0.90;0.13;;;;;;;;;;5283257;28;20049;-75
2023/01/12 09:56:04;;;;;;;0.65;0.00;;;;;;;;;;5283871;28;20027;-75
2023/01/12 09:58:43;;;;;;;0.38;0.10;;;;;;;;;;5283405;28;20028;-74
2023/01/12 10:01:15;;;;;;;1.27;0.10;;;;;;;;;;5284272;28;20024;-74
2023/01/12 10:03:46;;;;;;;0.60;0.10;;;;;;;;;;5283555;28;20039;-74
2023/01/12 10:06:18;;;;;;;1.35;0.10;;;;;;;;;;5283582;28;20492;-74
2023/01/12 10:08:56;;;;;;;0.98;0.10;;;;;;;;;;5283690;28;20021;-74
2023/01/12 10:11:33;;;;;;;0.67;0.20;;;;;;;;;;5283522;28;20107;-74
2023/01/12 10:14:07;;;;;;;1.13;0.10;;;;;;;;;;5282965;28;20488;-74
2023/01/12 10:16:48;;;;;;;1.27;0.28;;;;;;;;;;5283348;28;20024;-73
2023/01/12 10:19:23;;;;;;;1.00;0.10;;;;;;;;;;5283996;28;20028;-74
2023/01/12 10:21:55;;;;;;;0.73;0.10;;;;;;;;;;5283384;28;20028;-74
2023/01/12 10:24:26;;;;;;;0.60;0.10;;;;;;;;;;5283529;28;20486;-73
2023/01/12 10:27:02;;;;;;;1.38;0.10;;;;;;;;;;5282918;28;20028;-73
2023/01/12 10:29:33;;;;;;;1.50;0.05;;;;;;;;;;5283682;28;20040;-73
2023/01/12 10:32:04;;;;;;;0.55;0.10;;;;;;;;;;5283269;28;20113;-73
2023/01/12 10:34:49;;;;;;;0.65;0.10;;;;;;;;;;5282494;28;20017;-74
2023/01/12 10:37:20;;;;;;;0.50;0.10;;;;;;;;;;5283728;28;20028;-74
2023/01/12 10:39:51;;;;;;;1.10;0.00;;;;;;;;;;5283206;28;20027;-73
2023/01/12 10:45:20;;;;;;;0.40;0.05;;;;;;;;;;5283558;28;20032;-73
2023/01/12 10:47:52;;;;;;;0.68;0.00;;;;;;;;;;5282379;28;20024;-72
2023/01/12 10:50:24;;;;;;;0.60;0.10;;;;;;;;;;5283084;28;20196;-72
2023/01/12 10:53:10;;;;;;;0.38;0.00;;;;;;;;;;5283034;28;20072;-73
2023/01/12 10:55:41;;;;;;;0.32;0.00;;;;;;;;;;5281970;28;20147;-72
2023/01/12 10:58:19;;;;;;;0.80;0.10;;;;;;;;;;5283366;28;20119;-73
2023/01/12 11:00:51;;;;;;;0.93;0.10;;;;;;;;;;5282707;28;20035;-73
2023/01/12 11:03:31;;;;;;;0.70;0.10;;;;;;;;;;5282149;28;20100;-73
2023/01/12 11:06:17;;;;;;;0.35;0.00;;;;;;;;;;5282628;28;20380;-74
2023/01/12 11:08:48;;;;;;;0.25;0.00;;;;;;;;;;5281432;28;20098;-73
2023/01/12 11:11:25;;;;;;;0.20;0.00;;;;;;;;;;5283122;28;20472;-73
2023/01/12 11:13:58;;;;;;;0.30;0.00;;;;;;;;;;5282577;28;20494;-73
2023/01/12 11:16:34;;;;;;;0.10;0.10;;;;;;;;;;5281697;28;20020;-73
2023/01/12 11:19:15;;;;;;;0.60;0.10;;;;;;;;;;5282330;28;20032;-72
2023/01/12 11:21:52;;;;;;;0.13;0.00;;;;;;;;;;5281713;28;20503;-73
2023/01/12 11:24:36;;;;;;;0.20;0.00;;;;;;;;;;5281756;28;20016;-75
2023/01/12 11:27:21;;;;;;;0.32;0.05;;;;;;;;;;5282124;28;20398;-73
2023/01/12 11:30:01;;;;;;;0.57;0.10;;;;;;;;;;5281885;28;20471;-73
2023/01/12 11:32:38;;;;;;;0.65;0.10;;;;;;;;;;5282090;28;20074;-72
2023/01/12 11:35:25;;;;;;;0.10;0.10;;;;;;;;;;5282154;28;20024;-72
2023/01/12 11:38:02;;;;;;;0.85;0.10;;;;;;;;;;5281503;28;20122;-72
2023/01/12 11:40:36;;;;;;;0.30;0.10;;;;;;;;;;5282301;28;20028;-72
2023/01/12 11:46:01;;;;;;;0.68;0.10;;;;;;;;;;5281603;28;20029;-73
2023/01/12 11:48:42;;;;;;;0.68;0.00;;;;;;;;;;5282017;28;20017;-72
2023/01/12 11:51:13;;;;;;;0.38;0.10;;;;;;;;;;5281687;28;20055;-73
2023/01/12 11:53:44;;;;;;;0.80;0.10;;;;;;;;;;5281328;28;20075;-73
2023/01/12 11:56:16;;;;;;;0.43;0.10;;;;;;;;;;5282515;28;20028;-73
2023/01/12 11:59:09;;;;;;;0.20;0.05;;;;;;;;;;5280736;28;20093;-72
2023/01/12 12:01:43;;;;;;;0.60;0.10;;;;;;;;;;5281484;28;20044;-72
2023/01/12 12:04:40;;;;;;;0.20;0.00;;;;;;;;;;5281978;28;20028;-73
2023/01/12 12:07:19;;;;;;;0.05;0.00;;;;;;;;;;5257683;28;20036;-73
2023/01/12 12:10:09;;;;;;;0.73;0.10;;;;;;;;;;5281505;28;20027;-73
2023/01/12 12:13:00;;;;;;;0.35;0.10;;;;;;;;;;5280708;28;20078;-73
2023/01/12 12:15:37;;;;;;;0.30;0.00;;;;;;;;;;5281985;28;20041;-72
2023/01/12 12:18:27;;;;;;;0.40;0.03;;;;;;;;;;5281475;28;20032;-73
2023/01/12 12:21:16;;;;;;;0.38;0.10;;;;;;;;;;5280758;28;20468;-73
2023/01/12 12:23:53;;;;;;;0.30;0.00;;;;;;;;;;5281454;28;20032;-73
2023/01/12 12:26:31;;;;;;;0.40;0.10;;;;;;;;;;5280878;28;20070;-74
2023/01/12 12:29:14;;;;;;;0.45;0.00;;;;;;;;;;5281595;28;20025;-75
2023/01/12 12:32:04;;;;;;;0.40;0.10;;;;;;;;;;5281383;28;20026;-73
2023/01/12 12:34:53;;;;;;;0.60;0.10;;;;;;;;;;5282688;28;20483;-73
2023/01/12 12:37:43;;;;;;;1.02;0.10;;;;;;;;;;5285578;28;20029;-73
2023/01/12 12:40:28;;;;;;;0.32;0.10;;;;;;;;;;5285307;28;20032;-73
2023/01/12 12:46:15;;;;;;;1.17;0.10;;;;;;;;;;5286179;28;20064;-73
2023/01/12 12:49:06;;;;;;;0.43;0.10;;;;;;;;;;5284590;28;20025;-72
2023/01/12 12:51:39;;;;;;;0.55;0.10;;;;;;;;;;5284970;28;20036;-72
2023/01/12 12:54:14;;;;;;;0.73;0.10;;;;;;;;;;5284799;28;20500;-72
2023/01/12 12:56:46;;;;;;;0.40;0.00;;;;;;;;;;5285298;28;20134;-72
2023/01/12 12:59:32;;;;;;;0.28;0.00;;;;;;;;;;5286070;28;20433;-72
2023/01/12 13:02:04;;;;;;;0.85;0.10;;;;;;;;;;5284611;28;20044;-73
2023/01/12 13:04:41;;;;;;;0.25;0.00;;;;;;;;;;5285189;28;20125;-72
2023/01/12 13:07:14;;;;;;;0.32;0.08;;;;;;;;;;5285369;28;20104;-72
2023/01/12 13:09:45;;;;;;;1.02;0.20;;;;;;;;;;5284113;28;20020;-73
2023/01/12 13:12:16;;;;;;;0.38;0.05;;;;;;;;;;5285479;28;20609;-71
2023/01/12 13:15:06;;;;;;;0.50;0.00;;;;;;;;;;5284888;28;20028;-72
2023/01/12 13:17:42;;;;;;;0.22;0.00;;;;;;;;;;5284270;28;20287;-72
2023/01/12 13:20:13;;;;;;;0.80;0.00;;;;;;;;;;5285313;28;20036;-72
2023/01/12 13:22:45;;;;;;;0.40;0.10;;;;;;;;;;5284114;28;20024;-72
2023/01/12 13:25:19;;;;;;;0.70;0.10;;;;;;;;;;5285262;28;20262;-71
2023/01/12 13:27:59;;;;;;;0.17;0.00;;;;;;;;;;5284361;28;20124;-73
2023/01/12 13:30:30;;;;;;;0.22;0.00;;;;;;;;;;5284256;28;20484;-72
2023/01/12 13:33:13;;;;;;;0.70;0.10;;;;;;;;;;5284981;28;20110;-72
2023/01/12 13:35:47;;;;;;;0.50;0.10;;;;;;;;;;5284223;28;20028;-72
2023/01/12 13:38:42;;;;;;;0.43;0.10;;;;;;;;;;5284325;28;20031;-71
2023/01/12 13:41:13;;;;;;;0.50;0.10;;;;;;;;;;5285051;28;20396;-72
2023/01/12 13:43:52;;;;;;;0.57;0.05;;;;;;;;;;5283497;28;20063;-73
2023/01/12 13:46:26;;;;;;;0.52;0.10;;;;;;;;;;5283931;28;20017;-73
2023/01/12 13:48:57;;;;;;;0.70;0.10;;;;;;;;;;5284579;28;20013;-72
2023/01/12 13:51:39;;;;;;;0.70;0.10;;;;;;;;;;5283739;28;20055;-72
2023/01/12 13:54:14;;;;;;;0.82;0.10;;;;;;;;;;5284455;28;20044;-72
2023/01/12 13:56:51;;;;;;;0.65;0.10;;;;;;;;;;5283966;28;20017;-73
2023/01/12 13:59:26;;;;;;;0.93;0.20;;;;;;;;;;5283676;28;20036;-72
2023/01/12 14:01:58;;;;;;;0.93;0.17;;;;;;;;;;5284476;28;20783;-72
2023/01/12 14:04:48;;;;;;;0.60;0.10;;;;;;;;;;5283294;28;20028;-72
2023/01/12 14:07:34;;;;;;;0.73;0.10;;;;;;;;;;5284229;28;20017;-72
2023/01/12 14:10:05;;;;;;;1.05;0.20;;;;;;;;;;5283959;28;20028;-72
2023/01/12 14:12:49;;;;;;;1.55;0.10;;;;;;;;;;5283328;28;20384;-72
2023/01/12 14:18:46;;;;;;;0.70;0.10;;;;;;;;;;5283159;28;20032;-73
2023/01/12 14:21:21;;;;;;;1.90;0.10;;;;;;;;;;5284154;28;20036;-72
2023/01/12 14:24:07;;;;;;;0.35;0.10;;;;;;;;;;5283544;28;20062;-72
2023/01/12 14:26:38;;;;;;;0.50;0.10;;;;;;;;;;5282987;28;20392;-71
2023/01/12 14:29:10;;;;;;;1.00;0.10;;;;;;;;;;5284078;28;20016;-71
2023/01/12 14:31:43;;;;;;;0.80;0.10;;;;;;;;;;5283225;28;20396;-74
2023/01/12 14:34:21;;;;;;;0.70;0.10;;;;;;;;;;5283062;28;20013;-72
2023/01/12 14:36:52;;;;;;;0.43;0.10;;;;;;;;;;5283629;28;20019;-70
2023/01/12 14:39:25;;;;;;;0.43;0.10;;;;;;;;;;5283319;28;20028;-71
2023/01/12 14:47:38;;;;;;;0.82;0.10;;;;;;;;;;5282694;28;20024;-72
2023/01/12 14:50:12;;;;;;;1.30;0.10;;;;;;;;;;5283569;28;20025;-71
2023/01/12 14:52:44;;;;;;;0.88;0.10;;;;;;;;;;5282700;28;20125;-71
2023/01/12 14:55:16;;;;;;;0.30;0.10;;;;;;;;;;5282624;28;20117;-71
2023/01/12 14:57:49;;;;;;;0.47;0.10;;;;;;;;;;5282005;28;20476;-71
2023/01/12 15:00:28;;;;;;;1.23;0.10;;;;;;;;;;5283281;28;20471;-72
2023/01/12 15:03:00;;;;;;;0.68;0.20;;;;;;;;;;5282027;28;20025;-70
2023/01/12 15:05:32;;;;;;;1.08;0.10;;;;;;;;;;5282805;28;20077;-71
2023/01/12 15:08:06;;;;;;;1.40;0.10;;;;;;;;;;5272651;28;20028;-72
2023/01/12 15:10:39;;;;;;;0.70;0.40;;;;;;;;;;5280517;28;20422;-72
2023/01/12 15:13:27;;;;;;;1.08;0.10;;;;;;;;;;5281772;28;20278;-71
2023/01/12 15:27:21;;;;;;;0.63;0.17;;;;;;;;;;5281807;28;20463;-71
2023/01/12 15:29:53;;;;;;;0.35;0.10;;;;;;;;;;5280895;28;20024;-71
2023/01/12 15:32:30;;;;;;;1.30;0.10;;;;;;;;;;5280959;28;20032;-72
2023/01/12 15:35:05;;;;;;;0.82;0.10;;;;;;;;;;5280732;28;20029;-72
2023/01/12 15:37:36;;;;;;;1.65;0.10;;;;;;;;;;5280424;28;20150;-72
2023/01/12 15:40:10;;;;;;;0.65;0.10;;;;;;;;;;5281407;28;20462;-72
2023/01/12 15:42:42;;;;;;;0.70;0.20;;;;;;;;;;5280505;28;20056;-72
2023/01/12 15:45:16;;;;;;;0.73;0.10;;;;;;;;;;5281820;28;20048;-71
2023/01/12 15:47:47;;;;;;;0.60;0.17;;;;;;;;;;5281704;28;20371;-72
2023/01/12 15:50:18;;;;;;;1.15;0.13;;;;;;;;;;5281589;28;20031;-72
2023/01/12 15:52:50;;;;;;;0.63;0.10;;;;;;;;;;5281318;28;20075;-72
2023/01/12 15:55:21;;;;;;;3.13;0.30;;;;;;;;;;5282042;28;20492;-71
2023/01/12 15:57:53;;;;;;;0.90;0.30;;;;;;;;;;5280543;28;20024;-72
2023/01/12 16:00:24;;;;;;;1.05;0.20;;;;;;;;;;5281465;28;20050;-72
2023/01/12 16:02:55;;;;;;;0.70;0.20;;;;;;;;;;5281213;28;20360;-73
2023/01/12 16:05:27;;;;;;;1.50;0.20;;;;;;;;;;5281157;28;20475;-72
2023/01/12 16:07:58;;;;;;;1.05;0.20;;;;;;;;;;5281313;28;20032;-71
2023/01/12 16:10:29;;;;;;;0.68;0.17;;;;;;;;;;5281416;28;20021;-70
2023/01/12 16:13:03;;;;;;;1.58;0.20;;;;;;;;;;5280814;28;20036;-71
2023/01/12 16:15:35;;;;;;;0.85;0.17;;;;;;;;;;5281496;28;20027;-71
2023/01/12 16:18:06;;;;;;;1.13;0.17;;;;;;;;;;5280729;28;20017;-72